»·PEaware :: DAL8833 CYVR-KSEA

DAL8833 :: CYVR-KSEA

FLIGHT INFORMATION

Flight Status: Arrived
Operator:
Delta Air Lines
More flights by this operator :: More flights under this callsign
Pilot: Cooper L. (8467)
Aircraft: MCDONNELL-DOUGLAS MD-88
(MD88)
More flights by this aircraft type
Origin: CYVR Vancouver Intl
Canada
Destination: KSEA Seattle-Tacoma Intl
United States
More flights between these airports :: More routes between these airports
Route: YVR JAWBN4
File this flight plan on PilotEdge
Remarks:
Altitude:
(Current/Filed)
19,000ft
Speed:
(Current/Filed)
400kts
Departed: 08-Dec-15 09:18 PM
Arrived: 08-Dec-15 09:45 PM
Distance/Time
Traveled:
111nm/0:27
Distance/Time
To Go:
Arrived

Flight Plot

Page will automatically refresh every two minutes.


Map Options




Map Legend


Flown Route
Filed Route
Departure Airport
Arrival Airport
Navaid (VOR, NDB)
Fix

Horizontal Profiles

Position Reports

Time Latitude Longitude Heading Altitude Ground
Speed
08-Dec-15 20:52 49.194786 -123.182316 44 20ft 0kts
08-Dec-15 20:53 49.194786 -123.182316 44 20ft 0kts
08-Dec-15 20:54 49.194786 -123.182316 44 20ft 0kts
08-Dec-15 20:55 49.194786 -123.182316 44 20ft 0kts
08-Dec-15 20:56 49.194786 -123.182316 44 20ft 0kts
08-Dec-15 20:57 49.194786 -123.182316 44 20ft 0kts
08-Dec-15 20:58 49.194786 -123.182316 44 20ft 0kts
08-Dec-15 20:59 49.194786 -123.182316 44 20ft 0kts
08-Dec-15 21:00 49.194786 -123.182316 44 20ft 0kts
08-Dec-15 21:01 49.194786 -123.182316 44 20ft 0kts
08-Dec-15 21:02 49.194786 -123.182316 44 20ft 0kts
08-Dec-15 21:03 49.194786 -123.182316 44 20ft 0kts
08-Dec-15 21:04 49.194786 -123.182316 44 20ft 0kts
08-Dec-15 21:05 49.194450 -123.182857 77 20ft 0kts
08-Dec-15 21:06 49.194142 -123.182822 223 20ft 0kts
08-Dec-15 21:07 49.194088 -123.182971 248 20ft 3kts
08-Dec-15 21:08 49.193592 -123.190070 263 20ft 17kts
08-Dec-15 21:09 49.192743 -123.197177 259 20ft 29kts
08-Dec-15 21:10 49.192316 -123.205686 341 20ft 3kts
08-Dec-15 21:11 49.192516 -123.207469 203 20ft 0kts
08-Dec-15 21:12 49.192516 -123.207469 203 20ft 0kts
08-Dec-15 21:13 49.192462 -123.207499 198 20ft 4kts
08-Dec-15 21:14 49.191299 -123.208051 199 20ft 11kts
08-Dec-15 21:15 49.188159 -123.190987 101 27ft 161kts
08-Dec-15 21:16 49.144302 -123.151500 176 2697ft 257kts
08-Dec-15 21:17 49.073835 -123.144036 172 5125ft 303kts
08-Dec-15 21:18 48.985833 -123.121705 166 5389ft 333kts
08-Dec-15 21:19 48.894493 -123.094370 169 5859ft 382kts
08-Dec-15 21:20 48.793893 -123.064740 171 6333ft 379kts
08-Dec-15 21:21 48.691198 -123.034694 169 7212ft 383kts
08-Dec-15 21:22 48.605243 -123.009328 170 7786ft 274kts
08-Dec-15 21:23 48.543462 -122.991091 173 7878ft 202kts
08-Dec-15 21:24 48.494078 -122.978596 173 6421ft 238kts
08-Dec-15 21:25 48.432978 -122.965937 185 10474ft 252kts
08-Dec-15 21:26 48.368586 -122.965475 197 13959ft 258kts
08-Dec-15 21:27 48.304596 -122.982921 208 17421ft 246kts
08-Dec-15 21:28 48.230640 -122.926078 145 17472ft 395kts
08-Dec-15 21:29 48.132328 -122.866225 176 15576ft 385kts
08-Dec-15 21:30 48.044618 -122.823592 167 13314ft 334kts
08-Dec-15 21:31 47.970617 -122.764932 157 11911ft 279kts
08-Dec-15 21:32 47.910686 -122.705321 162 10331ft 252kts
08-Dec-15 21:33 47.851263 -122.668180 162 8806ft 244kts
08-Dec-15 21:34 47.781593 -122.615413 147 8218ft 313kts
08-Dec-15 21:35 47.723061 -122.531414 122 6427ft 302kts
08-Dec-15 21:36 47.682626 -122.430290 115 4712ft 275kts
08-Dec-15 21:37 47.635674 -122.359856 142 3002ft 230kts
08-Dec-15 21:38 47.595532 -122.312393 149 2145ft 158kts
08-Dec-15 21:39 47.555237 -122.311864 178 1078ft 150kts
08-Dec-15 21:40 47.515014 -122.307882 175 1236ft 137kts
08-Dec-15 21:41 47.477029 -122.307895 179 684ft 135kts
08-Dec-15 21:42 47.447982 -122.307874 180 439ft 34kts
08-Dec-15 21:43 47.445600 -122.306388 157 439ft 5kts
08-Dec-15 21:44 47.445836 -122.305594 1 439ft 10kts
08-Dec-15 21:45 47.446945 -122.303772 174 439ft 8kts
08-Dec-15 21:46 47.446916 -122.303770 178 439ft 0kts
08-Dec-15 21:47 47.446916 -122.303770 178 439ft 0kts
08-Dec-15 21:48 47.446916 -122.303770 178 439ft 0kts
08-Dec-15 21:49 47.446916 -122.303770 178 439ft 0kts
08-Dec-15 21:50 47.446916 -122.303770 178 439ft 0kts
08-Dec-15 21:51 47.446916 -122.303770 178 439ft 0kts
08-Dec-15 21:52 47.446916 -122.303770 178 439ft 0kts
08-Dec-15 21:53 47.446916 -122.303770 178 439ft 0kts
08-Dec-15 21:54 47.446916 -122.303770 178 439ft 0kts

Navigation Log

Ident Type
Flight plan parsing failed, navigation log unavailable